Pagina principale
METAR-TAF:

METAR-TAF

Aeroporti :

Boscombe Down, Inghilterra

latitudine: 51-10N, longitudine: 001-45W, altezza: 124 m

Osservazione

Il bollettino è stato emesso 1 ora e 24 minuti fa, alle 18:50 UTC
Vento 16 kt da nord-est
Temperature 18°C
Umidità 77%
Pressione 1026 hPa
Visibilità 10 km o più

METAR: EGDM 261850Z AUTO 04016KT 9999 SCT018/// 18/14 Q1026

Ora: 21:14 (20:14 UTC)

Previsione

Il bollettino è stato emesso 6 ore e 24 minuti fa, alle 13:50 UTC
Previsione valida dal 26 alle 15 UTC al 26 alle 18 UTC
Vento 17 kt da nord-est
Visibilità 10 km o più
Poco nuvoloso ad un'altezza di 2000 ft

TAF: EGDM 261350Z 2615/2618 04017KT 9999 FEW020

Osservazioni e previsioni meteorologiche di più di 4000 aeroporti (messaggi METAR e TAF).

Le stazioni disponibili sono rappresentate dai dischi gialli e rossi sulla carta.

Puntare il mouse per vedere il nome della stazione.

Clicca sopra per visualizzare le osservazioni e previsioni meteorologiche.

Per cambiare la mappa : fare clic sui pulsanti verdi con una croce nera per ingrandire, il pulsante verde con un trattino per diminuire, o sulla freccia verde per le mappe adiacenti.


METAR-TAF: